Colon, NE

11:11 PM CDT on March 27, 2015 (GMT -0500)
Fremont Municipal | | Change Station
CLOSE
Current Station
Airport
Location: Fremont,
Elevation: 1204 ft
Nearby Weather Stations

Elev 1204 ft 41.45 °N, 96.52 °W | Updated 16 minutes ago

Overcast
Overcast
36 °F
Feels Like 30 °F
N
9
Wind Variable Wind from ESE

Today
High -- | Low -- °F
--% Chance of Precip.
Yesterday
High -- | Low -- °F
Precip. -- in
7:18 AM 7:45 PM
First Quarter, 58% visible
Pressure 30.08 in
Visibility 10.0 miles
Clouds Overcast 6000 ft
Windchill 30 °F
Dew Point 24 °F
Humidity 61%
Rainfall 0.00 in
Snow Depth Not available.
UV 0 out of 12
Pollen 6.10 out of 12
Air Quality Not available.
Flu Activity Not available.
METAR KFET 280355Z AUTO 12008KT 10SM OVC060 02/M04 A3008 RMK AO2 T00241045

More Conditions Fewer Conditions

Pressure 30.08 in
Visibility 10.0 miles
Clouds Overcast 6000 ft
Windchill 30 °F
Dew Point 24 °F
Humidity 61%
Rainfall 0.00 in
Snow Depth Not available.
UV 0 out of 12
Pollen 6.10 out of 12
Air Quality Not available.
Flu Activity Not available.
METAR KFET 280355Z AUTO 12008KT 10SM OVC060 02/M04 A3008 RMK AO2 T00241045

More Conditions Fewer Conditions

10-Day Weather Forecast

Almanac

Astronomy

Mar. 27, 2015 Rise Set
Actual Time
Civil Twilight
Nautical Twilight
Astronomical Twilight
Moon
Length of Visible Light
Length of Day
Tomorrow will be .
, % of the Moon is Illuminated

Today's Extremes

State Highs State Lows

Community

WunderPhotos

Upload Photos

1,808,927 photos uploaded!

WunderBlogs® & News

Nearby

Air Quality

  Air Quality AQ Index Pollutant
Not available.

Snow Depth

Station Depth Elevation

Earthquake Activity

City Distance Mag. Time & Date
Minimum magnitude displayed is 2.5.

Coastal Water Temperatures

Place Temperature

Stations

Nearby Weather Stations

Station Location Temp. Windchill Dew Point Humidity Wind Precip. Elev Updated Type